Aparri, Philippines
Current Conditions -  °F | °C
As of 2:00 AM on Friday 30 Jan 2015 (Local Time) from RPLI Reporting Station
Few Clouds Few Clouds  
Wind Chill: 68°   Ceiling: Unl
Heat Index: 68°   Visibility: 6mi
Dew Point: 64°   Wind: 0mph
Humidity: 88%   Direction: NA
Pressure: 29.91"   Gusts: NA
Location:  18.36°N, 121.64°E
Report Text: RPLI 291800Z 00000KT 9999 FEW019 20/18 Q1013 NOSIG RMK A2991
Loading
Personal Weather Stations






























Interactive Weather Map New forecast layout! Learn more

10-Day Weather Forecast

Advertisements
Track Severe Weather on mobile